James L. Oberstar — WDC6154 — position and weather

sailwx.info

Track history (hours):
 
Tides and Currents Weather Stations Pressure Air Temp Water Temp Dewpoint Dewpoint Depression Visibility Wind Speed Wind Dir Waves Ship Positions

James L. Oberstar

Owner: Destin Trading Corporation, harahan, LA. More information available from US FCC via Universal Licensing System and Coast Guard Vessel Documentation Center.

Last reported at 2017-Jan-13 13:33 UTC. Time now 2017-Jan-18 10:13 UTC.
Position N 29°49' W 093°59'.

Length 26 m.

Type: Towing. MMSI: 367052120.

Date/timePositionNaut miles runAvg speedWind from/ knotsBaromVisibWave heightAir tempDewpointWater temp
2017-Jan-13 13:33N 29°49' W 093°59'  
2017-Jan-05 22:33N 29°30' W 094°52'7 7.2
2017-Jan-05 21:33N 29°36' W 094°57'7 6.8
2017-Jan-05 20:33N 29°42' W 095°01'5 5.2
2017-Jan-05 19:33N 29°45' W 095°06'0 0.3
2017-Jan-05 18:33N 29°45' W 095°06'0 0.0
2017-Jan-05 15:29N 29°45' W 095°06'0 0.0
2017-Jan-05 14:29N 29°45' W 095°06'0 0.0
2017-Jan-04 23:28N 29°45' W 095°06'3 3.4
2017-Jan-04 22:33N 29°44' W 095°03'3 3.0
2017-Jan-04 21:33N 29°42' W 094°60'7 6.6
2017-Jan-04 20:33N 29°36' W 094°57'7 6.9
2017-Jan-04 19:33N 29°30' W 094°52'  
Track history (hours):
 
Tides and Currents Weather Stations Pressure Air Temp Water Temp Dewpoint Dewpoint Depression Visibility Wind Speed Wind Dir Waves Ship Positions

James L. Oberstar

Owner: Destin Trading Corporation, harahan, LA. More information available from US FCC via Universal Licensing System and Coast Guard Vessel Documentation Center.

Last reported at 2017-Jan-13 13:33 UTC. Time now 2017-Jan-18 10:13 UTC.
Position N 29°49' W 093°59'.

Length 26 m.

Type: Towing. MMSI: 367052120.

Date/timePositionNaut miles runAvg speedWind from/ knotsBaromVisibWave heightAir tempDewpointWater temp
2017-Jan-13 13:33N 29°49' W 093°59'  
2017-Jan-05 22:33N 29°30' W 094°52'7 7.2
2017-Jan-05 21:33N 29°36' W 094°57'7 6.8
2017-Jan-05 20:33N 29°42' W 095°01'5 5.2
2017-Jan-05 19:33N 29°45' W 095°06'0 0.3
2017-Jan-05 18:33N 29°45' W 095°06'0 0.0
2017-Jan-05 15:29N 29°45' W 095°06'0 0.0
2017-Jan-05 14:29N 29°45' W 095°06'0 0.0
2017-Jan-04 23:28N 29°45' W 095°06'3 3.4
2017-Jan-04 22:33N 29°44' W 095°03'3 3.0
2017-Jan-04 21:33N 29°42' W 094°60'7 6.6
2017-Jan-04 20:33N 29°36' W 094°57'7 6.9
2017-Jan-04 19:33N 29°30' W 094°52'  

Dump ship's entire track history